Time;durP1;ratioP1;P1;durP2;ratioP2;P2;SDS_P1;SDS_P2;PMS_P1;PMS_P2;Temp;Humidity;BMP_temperature;BMP_pressure;BME280_temperature;BME280_humidity;BME280_pressure;Samples;Min_cycle;Max_cycle;Signal;HPM_P1;HPM_P2
2021/12/15 00:01:12;;;;;;;53.35;28.45;;;9.50;99.90;;;;;;5105066;28;20542;-79
2021/12/15 00:03:38;;;;;;;50.83;27.95;;;9.40;99.90;;;;;;5104415;28;20027;-79
2021/12/15 00:06:11;;;;;;;52.78;26.88;;;9.50;99.90;;;;;;5059543;28;20109;-79
2021/12/15 00:08:38;;;;;;;48.75;26.90;;;9.40;99.90;;;;;;5099584;28;20435;-79
2021/12/15 00:11:04;;;;;;;45.92;25.95;;;9.40;99.90;;;;;;5093587;28;20039;-79
2021/12/15 00:13:31;;;;;;;52.33;28.50;;;9.50;99.90;;;;;;5108311;28;20028;-79
2021/12/15 00:15:56;;;;;;;51.53;27.10;;;9.40;99.90;;;;;;5115004;28;20028;-79
2021/12/15 00:18:22;;;;;;;49.88;26.58;;;9.40;99.90;;;;;;5113398;28;20028;-79
2021/12/15 00:20:48;;;;;;;47.88;26.13;;;9.40;99.90;;;;;;5094697;28;20102;-79
2021/12/15 00:23:13;;;;;;;46.75;25.85;;;9.50;99.90;;;;;;5114038;28;20404;-79
2021/12/15 00:25:42;;;;;;;50.47;27.15;;;9.40;99.90;;;;;;5062963;28;20590;-79
2021/12/15 00:28:08;;;;;;;58.00;27.53;;;9.50;99.90;;;;;;5094484;28;20480;-79
2021/12/15 00:30:35;;;;;;;53.28;28.25;;;9.40;99.90;;;;;;5092934;28;20019;-79
2021/12/15 00:33:01;;;;;;;50.85;27.10;;;9.50;99.90;;;;;;5071380;28;20032;-79
2021/12/15 00:35:27;;;;;;;56.30;29.30;;;9.40;99.90;;;;;;5108280;28;20492;-79
2021/12/15 00:37:53;;;;;;;58.92;29.23;;;9.40;99.90;;;;;;5109946;28;20027;-79
2021/12/15 00:40:21;;;;;;;61.85;29.80;;;9.40;99.90;;;;;;5106637;28;20115;-79
2021/12/15 00:42:47;;;;;;;58.75;29.08;;;9.40;99.90;;;;;;5105803;28;20526;-79
2021/12/15 00:45:13;;;;;;;60.95;29.92;;;9.40;99.90;;;;;;5114106;28;20031;-79
2021/12/15 00:47:39;;;;;;;62.28;30.08;;;9.40;99.90;;;;;;5076343;28;20092;-79
2021/12/15 00:50:09;;;;;;;58.00;29.35;;;9.40;99.90;;;;;;5084537;28;20031;-79
2021/12/15 00:52:37;;;;;;;61.35;30.15;;;9.40;99.90;;;;;;5087307;28;20031;-78
2021/12/15 00:55:07;;;;;;;71.38;30.70;;;9.40;99.90;;;;;;5092946;28;20027;-79
2021/12/15 00:57:33;;;;;;;67.70;31.88;;;9.40;99.90;;;;;;5111267;28;20428;-78
2021/12/15 00:59:58;;;;;;;69.90;31.70;;;9.40;99.90;;;;;;5100942;28;20045;-79
2021/12/15 01:02:26;;;;;;;68.10;30.80;;;9.40;99.90;;;;;;5090256;28;20080;-79
2021/12/15 01:04:52;;;;;;;68.15;33.03;;;9.40;99.90;;;;;;5100737;28;20054;-79
2021/12/15 01:07:19;;;;;;;66.03;32.35;;;9.40;99.90;;;;;;5093717;28;20035;-79
2021/12/15 01:09:53;;;;;;;69.93;31.48;;;9.40;99.90;;;;;;5079334;28;20148;-79
2021/12/15 01:20:39;;;;;;;57.03;27.48;;;9.30;99.90;;;;;;5097818;28;20039;-79
2021/12/15 01:23:08;;;;;;;74.88;31.95;;;9.40;99.90;;;;;;5101032;28;20051;-79
2021/12/15 01:25:43;;;;;;;65.65;30.77;;;9.30;99.90;;;;;;5083874;28;20023;-79
2021/12/15 01:28:11;;;;;;;67.13;30.10;;;9.40;99.90;;;;;;5104977;28;20027;-79
2021/12/15 01:30:41;;;;;;;70.43;31.45;;;9.30;99.90;;;;;;5084048;28;20472;-79
2021/12/15 01:33:07;;;;;;;69.65;31.08;;;9.40;99.90;;;;;;5104209;28;20492;-79
2021/12/15 01:35:36;;;;;;;70.95;31.55;;;9.30;99.90;;;;;;5106947;28;20536;-79
2021/12/15 01:38:01;;;;;;;59.83;30.23;;;9.30;99.90;;;;;;5103426;28;20135;-79
2021/12/15 01:40:36;;;;;;;60.30;28.67;;;9.40;99.90;;;;;;5092238;28;20476;-79
2021/12/15 01:43:15;;;;;;;65.40;29.92;;;9.40;99.90;;;;;;5108883;28;20468;-79
2021/12/15 01:48:28;;;;;;;69.07;31.50;;;9.40;99.90;;;;;;5095952;28;20101;-79
2021/12/15 01:50:53;;;;;;;73.85;31.77;;;9.30;99.90;;;;;;5103714;28;20034;-79
2021/12/15 01:53:20;;;;;;;72.80;32.67;;;9.40;99.90;;;;;;5107036;28;20032;-79
2021/12/15 01:55:46;;;;;;;75.45;32.10;;;9.40;99.90;;;;;;5080577;28;20081;-79
2021/12/15 01:58:12;;;;;;;64.75;30.00;;;9.30;99.90;;;;;;5109953;28;20036;-79
2021/12/15 02:00:44;;;;;;;70.82;32.17;;;9.40;99.90;;;;;;5078365;28;20027;-79
2021/12/15 02:03:10;;;;;;;64.88;29.60;;;9.40;99.90;;;;;;5094917;28;20015;-79
2021/12/15 02:05:37;;;;;;;69.07;30.63;;;9.30;99.90;;;;;;5072231;28;20054;-79
2021/12/15 02:08:04;;;;;;;71.68;32.55;;;9.40;99.90;;;;;;5083319;28;20031;-79
2021/12/15 02:10:33;;;;;;;68.22;31.90;;;9.40;99.90;;;;;;5111751;28;20504;-79
2021/12/15 02:13:00;;;;;;;;;;;9.40;99.90;;;;;;5113660;28;20064;-79
2021/12/15 02:15:32;;;;;;;71.65;31.63;;;9.30;99.90;;;;;;5102416;28;19929;-79
2021/12/15 02:18:00;;;;;;;79.68;34.17;;;9.30;99.90;;;;;;5094822;28;20032;-79
2021/12/15 02:20:40;;;;;;;66.72;31.17;;;9.30;99.90;;;;;;5100342;28;20015;-79
2021/12/15 02:23:10;;;;;;;73.90;32.30;;;9.30;99.90;;;;;;5104833;28;20026;-79
2021/12/15 02:25:36;;;;;;;71.10;32.10;;;9.30;99.90;;;;;;5099284;28;20037;-79
2021/12/15 02:28:05;;;;;;;78.00;33.38;;;9.30;99.90;;;;;;5104128;28;20035;-79
2021/12/15 02:38:26;;;;;;;72.57;31.85;;;9.30;99.90;;;;;;5108378;28;20144;-79
2021/12/15 02:40:51;;;;;;;70.50;31.88;;;9.30;99.90;;;;;;5104719;28;20035;-79
2021/12/15 02:43:17;;;;;;;81.10;33.60;;;9.30;99.90;;;;;;5110778;28;20024;-79
2021/12/15 02:45:43;;;;;;;75.78;32.30;;;9.30;99.90;;;;;;5094517;28;20055;-79
2021/12/15 02:48:08;;;;;;;79.38;33.65;;;9.40;99.90;;;;;;5081545;28;20177;-79
2021/12/15 02:50:36;;;;;;;83.97;35.50;;;9.40;99.90;;;;;;5081560;28;20498;-79
2021/12/15 02:53:02;;;;;;;82.82;33.78;;;9.30;99.90;;;;;;5104952;28;20024;-79
2021/12/15 02:55:29;;;;;;;77.22;32.45;;;9.30;99.90;;;;;;5116567;28;20036;-79
2021/12/15 02:57:55;;;;;;;79.40;33.22;;;9.30;99.90;;;;;;5112145;28;20030;-79
2021/12/15 03:00:25;;;;;;;80.88;32.83;;;9.40;99.90;;;;;;5110919;28;20046;-79
2021/12/15 03:05:44;;;;;;;67.15;30.23;;;9.30;99.90;;;;;;5109012;28;20071;-79
2021/12/15 03:08:21;;;;;;;80.30;33.08;;;9.30;99.90;;;;;;5112851;28;20040;-79
2021/12/15 03:16:20;;;;;;;82.47;33.63;;;9.30;99.90;;;;;;5112001;28;20100;-79
2021/12/15 03:18:46;;;;;;;97.07;36.40;;;9.30;99.90;;;;;;5068625;28;20028;-79
2021/12/15 03:21:15;;;;;;;98.68;35.35;;;9.30;99.90;;;;;;5099162;28;20035;-79
2021/12/15 03:23:56;;;;;;;;;;;9.40;99.90;;;;;;5105439;28;20020;-79
2021/12/15 03:26:26;;;;;;;79.85;32.90;;;9.30;99.90;;;;;;5101239;28;20015;-79
2021/12/15 03:35:00;;;;;;;71.38;30.38;;;9.30;99.90;;;;;;5063277;28;20028;-78
2021/12/15 03:37:27;;;;;;;84.88;32.47;;;9.40;99.90;;;;;;5082279;28;20043;-79
2021/12/15 03:40:07;;;;;;;71.57;29.85;;;9.30;99.90;;;;;;5089308;28;20040;-79
2021/12/15 03:42:40;;;;;;;80.03;31.20;;;9.30;99.90;;;;;;5083572;28;20024;-79
2021/12/15 03:45:10;;;;;;;76.95;31.85;;;9.30;99.90;;;;;;5080671;28;20499;-79
2021/12/15 03:47:40;;;;;;;94.55;34.00;;;9.30;99.90;;;;;;5106233;28;20480;-79
2021/12/15 03:50:09;;;;;;;82.80;32.55;;;9.30;99.90;;;;;;5112355;28;20034;-79
2021/12/15 03:52:35;;;;;;;;;;;9.30;99.90;;;;;;5065821;28;20031;-79
2021/12/15 03:55:01;;;;;;;66.22;28.73;;;9.30;99.90;;;;;;5102023;28;20374;-79
2021/12/15 03:57:26;;;;;;;79.30;32.20;;;9.30;99.90;;;;;;5079613;28;20077;-78
2021/12/15 03:59:54;;;;;;;71.78;29.52;;;9.30;99.90;;;;;;5067712;28;20361;-79
2021/12/15 04:02:20;;;;;;;60.00;27.42;;;9.30;99.90;;;;;;5060261;28;20028;-79
2021/12/15 04:04:48;;;;;;;72.30;30.25;;;9.30;99.90;;;;;;5094640;28;20064;-79
2021/12/15 04:07:16;;;;;;;66.13;29.63;;;9.30;99.90;;;;;;5084540;28;20096;-79
2021/12/15 04:09:42;;;;;;;64.03;27.67;;;9.30;99.90;;;;;;5090431;28;20046;-79
2021/12/15 04:12:09;;;;;;;69.57;28.83;;;9.30;99.90;;;;;;5105289;28;20081;-79
2021/12/15 04:14:43;;;;;;;70.47;29.70;;;9.30;99.90;;;;;;5087128;28;20531;-79
2021/12/15 04:17:26;;;;;;;58.00;27.02;;;9.40;99.90;;;;;;5087352;28;20043;-79
2021/12/15 04:19:54;;;;;;;72.63;31.15;;;9.30;99.90;;;;;;5107518;28;20063;-79
2021/12/15 04:22:20;;;;;;;64.88;29.52;;;9.30;99.90;;;;;;5090548;28;20024;-79
2021/12/15 04:24:46;;;;;;;63.60;27.83;;;9.30;99.90;;;;;;5094005;28;20565;-79
2021/12/15 04:27:12;;;;;;;63.72;28.05;;;9.40;99.90;;;;;;5084061;28;20085;-79
2021/12/15 04:29:39;;;;;;;53.63;25.95;;;9.40;99.90;;;;;;5078164;28;20023;-79
2021/12/15 04:32:12;;;;;;;66.72;28.55;;;9.40;99.90;;;;;;5093019;28;20381;-79
2021/12/15 04:34:38;;;;;;;67.82;27.83;;;9.40;99.90;;;;;;5104734;28;20032;-79
2021/12/15 04:37:04;;;;;;;57.50;26.23;;;9.30;99.90;;;;;;5096290;28;20032;-79
2021/12/15 04:39:30;;;;;;;66.10;28.00;;;9.30;99.90;;;;;;5114734;28;20028;-79
2021/12/15 04:41:57;;;;;;;58.47;27.75;;;9.30;99.90;;;;;;5092025;28;20031;-79
2021/12/15 04:44:27;;;;;;;58.38;27.30;;;9.40;99.90;;;;;;5068834;28;20118;-79
2021/12/15 04:47:02;;;;;;;61.08;27.42;;;9.40;99.90;;;;;;5089243;28;20074;-79
2021/12/15 04:49:36;;;;;;;55.50;26.25;;;9.40;99.90;;;;;;5103009;28;20026;-79
2021/12/15 04:52:03;;;;;;;57.72;27.27;;;9.30;99.90;;;;;;5104059;28;20020;-79
2021/12/15 04:54:30;;;;;;;55.05;26.85;;;9.40;99.90;;;;;;5102756;28;20030;-79
2021/12/15 04:56:57;;;;;;;54.45;26.15;;;9.40;99.90;;;;;;5106090;28;20024;-79
2021/12/15 04:59:23;;;;;;;58.20;26.98;;;9.40;99.90;;;;;;5100950;28;20503;-79
2021/12/15 05:01:49;;;;;;;56.45;25.92;;;9.40;99.90;;;;;;5110431;28;20028;-79
2021/12/15 05:04:15;;;;;;;48.28;24.77;;;9.30;99.90;;;;;;5111070;28;20019;-79
2021/12/15 05:06:42;;;;;;;59.85;27.50;;;9.40;99.90;;;;;;5063433;28;20139;-79
2021/12/15 05:09:09;;;;;;;46.70;25.02;;;9.40;99.90;;;;;;5102271;28;20020;-79
2021/12/15 05:11:35;;;;;;;45.05;23.25;;;9.30;99.90;;;;;;5112160;28;20023;-79
2021/12/15 05:14:01;;;;;;;54.95;26.13;;;9.30;99.90;;;;;;5103499;28;20029;-79
2021/12/15 05:16:27;;;;;;;46.72;24.35;;;9.30;99.90;;;;;;5088982;28;20023;-79
2021/12/15 05:18:53;;;;;;;49.85;24.25;;;9.30;99.90;;;;;;5092354;28;20027;-79
2021/12/15 05:21:18;;;;;;;54.42;25.27;;;9.40;99.90;;;;;;5086394;28;20039;-79
2021/12/15 05:23:49;;;;;;;45.55;23.33;;;9.40;99.90;;;;;;5068825;28;20028;-79
2021/12/15 05:26:15;;;;;;;51.40;24.65;;;9.30;99.90;;;;;;5081235;28;20031;-78
2021/12/15 05:28:40;;;;;;;51.38;24.10;;;9.30;99.90;;;;;;5099011;28;20028;-79
2021/12/15 05:31:06;;;;;;;48.60;24.77;;;9.30;99.90;;;;;;5087877;28;20024;-79
2021/12/15 05:33:32;;;;;;;51.65;24.73;;;9.30;99.90;;;;;;5109945;28;20442;-79
2021/12/15 05:35:58;;;;;;;49.60;24.85;;;9.40;99.90;;;;;;5107203;28;20031;-79
2021/12/15 05:38:25;;;;;;;49.83;24.23;;;9.40;99.90;;;;;;5089175;28;20035;-79
2021/12/15 05:40:51;;;;;;;53.08;24.67;;;9.30;99.90;;;;;;5083589;28;20035;-79
2021/12/15 05:43:17;;;;;;;42.72;22.13;;;9.40;99.90;;;;;;5083307;28;20031;-79
2021/12/15 05:45:43;;;;;;;56.15;25.08;;;9.40;99.90;;;;;;5086399;28;20028;-79
2021/12/15 05:48:13;;;;;;;54.15;25.02;;;9.30;99.90;;;;;;5061245;28;20392;-81
2021/12/15 05:50:40;;;;;;;42.58;22.38;;;9.30;99.90;;;;;;5086677;28;20437;-81
2021/12/15 05:53:06;;;;;;;42.85;22.35;;;9.30;99.90;;;;;;5058209;28;20036;-81
2021/12/15 05:55:34;;;;;;;45.05;22.08;;;9.30;99.90;;;;;;5081128;28;20042;-81
2021/12/15 05:58:00;;;;;;;43.60;22.42;;;9.30;99.90;;;;;;5097501;28;20559;-81
2021/12/15 06:00:31;;;;;;;52.22;24.33;;;9.30;99.90;;;;;;5058760;28;20107;-80
2021/12/15 06:02:57;;;;;;;44.88;21.33;;;9.30;99.90;;;;;;5107925;28;20032;-82
2021/12/15 06:05:24;;;;;;;41.80;21.42;;;9.30;99.90;;;;;;5073314;28;20067;-81
2021/12/15 06:07:50;;;;;;;43.92;22.98;;;9.30;99.90;;;;;;5092305;28;20032;-81
2021/12/15 06:10:21;;;;;;;43.03;21.70;;;9.30;99.90;;;;;;5097130;28;20032;-81
2021/12/15 06:12:49;;;;;;;42.30;22.30;;;9.30;99.90;;;;;;5100080;28;20051;-81
2021/12/15 06:15:24;;;;;;;45.03;22.55;;;9.30;99.90;;;;;;5086558;28;20080;-81
2021/12/15 06:17:59;;;;;;;44.70;21.42;;;9.30;99.90;;;;;;5096782;28;20468;-81
2021/12/15 06:20:25;;;;;;;46.42;23.08;;;9.30;99.90;;;;;;5093697;28;20626;-81
2021/12/15 06:22:53;;;;;;;42.78;21.50;;;9.30;99.90;;;;;;5091910;28;20031;-81
2021/12/15 06:25:20;;;;;;;42.08;20.50;;;9.30;99.90;;;;;;5090798;28;20079;-81
2021/12/15 06:27:45;;;;;;;46.58;22.27;;;9.30;99.90;;;;;;5072725;28;20085;-81
2021/12/15 06:30:11;;;;;;;44.83;22.23;;;9.30;99.90;;;;;;5079934;28;20020;-77
2021/12/15 06:32:37;;;;;;;42.83;21.55;;;9.30;99.90;;;;;;5086938;28;21889;-76
2021/12/15 06:35:05;;;;;;;49.80;24.00;;;9.30;99.90;;;;;;5087652;28;20024;-81
2021/12/15 06:37:31;;;;;;;44.78;22.92;;;9.30;99.90;;;;;;5089154;28;20092;-81
2021/12/15 06:39:56;;;;;;;45.25;22.58;;;9.30;99.90;;;;;;5078981;28;20024;-81
2021/12/15 06:42:22;;;;;;;40.25;21.95;;;9.30;99.90;;;;;;5083426;28;20036;-81
2021/12/15 06:44:48;;;;;;;47.95;23.98;;;9.30;99.90;;;;;;5094473;28;20028;-81
2021/12/15 06:57:13;;;;;;;41.05;21.13;;;9.30;99.90;;;;;;5076023;28;20631;-81
2021/12/15 06:58:24;;;;;;;44.97;22.17;;;9.30;99.90;;;;;;5102630;28;20039;-81
2021/12/15 07:00:53;;;;;;;44.80;22.95;;;9.20;99.90;;;;;;5086852;28;20802;-81
2021/12/15 07:03:21;;;;;;;41.88;22.00;;;9.30;99.90;;;;;;5099391;28;20024;-81
2021/12/15 07:05:47;;;;;;;49.83;24.48;;;9.30;99.90;;;;;;5061477;28;20040;-81
2021/12/15 07:08:14;;;;;;;45.10;22.50;;;9.30;99.90;;;;;;5071343;28;20036;-81
2021/12/15 07:10:46;;;;;;;43.65;21.92;;;9.30;99.90;;;;;;5099839;28;20586;-81
2021/12/15 07:13:12;;;;;;;41.40;22.05;;;9.30;99.90;;;;;;5078270;28;20420;-81
2021/12/15 07:15:39;;;;;;;42.35;23.40;;;9.30;99.90;;;;;;5079562;28;20024;-81
2021/12/15 07:18:09;;;;;;;49.47;24.92;;;9.30;99.90;;;;;;5085537;28;20019;-81
2021/12/15 07:20:48;;;;;;;42.13;21.20;;;9.30;99.90;;;;;;5097521;28;20024;-81
2021/12/15 07:23:18;;;;;;;42.30;21.83;;;9.30;99.90;;;;;;5090821;28;20119;-81
2021/12/15 07:25:46;;;;;;;44.78;23.80;;;9.30;99.90;;;;;;5106593;28;20024;-81
2021/12/15 07:28:13;;;;;;;43.60;23.63;;;9.30;99.90;;;;;;5110088;28;20024;-81
2021/12/15 07:30:39;;;;;;;44.47;23.92;;;9.40;99.90;;;;;;5116225;28;20360;-81
2021/12/15 07:33:07;;;;;;;40.40;22.08;;;9.40;99.90;;;;;;5093918;28;20032;-81
2021/12/15 07:35:33;;;;;;;47.38;24.10;;;9.40;99.90;;;;;;5085174;28;20024;-81
2021/12/15 07:37:59;;;;;;;43.25;22.20;;;9.30;99.90;;;;;;5091918;28;20432;-81
2021/12/15 07:40:25;;;;;;;39.33;23.38;;;9.40;99.90;;;;;;5079029;28;20052;-81
2021/12/15 07:43:09;;;;;;;46.47;23.95;;;9.40;99.90;;;;;;5104770;28;20040;-81
2021/12/15 07:45:40;;;;;;;47.13;24.60;;;9.40;99.90;;;;;;5087053;28;20020;-81
2021/12/15 07:48:06;;;;;;;50.47;24.63;;;9.40;99.90;;;;;;5083953;28;20027;-81
2021/12/15 07:50:34;;;;;;;47.80;24.95;;;9.40;99.90;;;;;;5112928;28;20050;-81
2021/12/15 07:53:00;;;;;;;50.65;23.92;;;9.40;99.90;;;;;;5097853;28;20024;-81
2021/12/15 07:55:26;;;;;;;47.63;25.08;;;9.40;99.90;;;;;;5095850;28;20383;-82
2021/12/15 07:57:53;;;;;;;43.97;22.60;;;9.40;99.90;;;;;;5086129;28;20760;-81
2021/12/15 08:00:20;;;;;;;46.95;24.63;;;9.40;99.90;;;;;;5053603;28;20063;-82
2021/12/15 08:02:46;;;;;;;42.72;22.98;;;9.40;99.90;;;;;;5098735;28;20494;-82
2021/12/15 08:05:12;;;;;;;44.45;23.88;;;9.40;99.90;;;;;;5097448;28;20039;-81
2021/12/15 08:07:38;;;;;;;52.33;24.27;;;9.40;99.90;;;;;;5115450;28;20081;-81
2021/12/15 08:10:08;;;;;;;49.47;24.00;;;9.40;99.90;;;;;;5097108;28;20035;-81
2021/12/15 08:12:34;;;;;;;46.15;23.50;;;9.40;99.90;;;;;;5097217;28;20035;-82
2021/12/15 08:15:00;;;;;;;48.97;25.13;;;9.40;99.90;;;;;;5114874;28;20476;-82
2021/12/15 08:17:28;;;;;;;49.70;24.83;;;9.40;99.90;;;;;;5063567;28;20024;-81
2021/12/15 08:19:53;;;;;;;46.88;23.88;;;9.40;99.90;;;;;;5098968;28;20477;-82
2021/12/15 08:22:19;;;;;;;43.88;22.88;;;9.40;99.90;;;;;;5092244;28;20036;-81
2021/12/15 08:24:45;;;;;;;44.42;23.02;;;9.50;99.90;;;;;;5079298;28;20118;-81
2021/12/15 08:27:10;;;;;;;49.50;23.48;;;9.40;99.90;;;;;;5065152;28;20036;-81
2021/12/15 08:29:36;;;;;;;49.50;23.75;;;9.40;99.90;;;;;;5094009;28;20055;-82
2021/12/15 08:32:03;;;;;;;50.65;24.27;;;9.50;99.90;;;;;;5064218;28;20114;-81
2021/12/15 08:34:29;;;;;;;48.92;22.83;;;9.50;99.90;;;;;;5112314;28;20032;-81
2021/12/15 08:36:54;;;;;;;49.25;24.65;;;9.50;99.90;;;;;;5052971;28;20122;-81
2021/12/15 08:39:21;;;;;;;55.50;26.13;;;9.40;99.90;;;;;;5059053;28;20058;-82
2021/12/15 08:41:47;;;;;;;64.80;27.42;;;9.50;99.90;;;;;;5096378;28;20667;-82
2021/12/15 08:44:13;;;;;;;57.97;25.20;;;9.50;99.90;;;;;;5096360;28;20023;-82
2021/12/15 08:46:43;;;;;;;60.42;26.92;;;9.50;99.90;;;;;;5102805;28;20507;-81
2021/12/15 08:49:13;;;;;;;52.22;25.67;;;9.50;99.90;;;;;;5100769;28;20028;-82
2021/12/15 08:51:39;;;;;;;58.75;26.30;;;9.50;99.90;;;;;;5099253;28;20055;-81
2021/12/15 08:54:08;;;;;;;57.03;26.48;;;9.50;99.90;;;;;;5110602;28;20384;-81
2021/12/15 08:56:34;;;;;;;;;;;9.50;99.90;;;;;;5113810;28;20024;-82
2021/12/15 08:59:00;;;;;;;52.80;24.58;;;9.50;99.90;;;;;;5093009;28;19938;-81
2021/12/15 09:01:26;;;;;;;62.10;26.63;;;9.50;99.90;;;;;;5114621;28;20020;-81
2021/12/15 09:03:52;;;;;;;58.40;25.95;;;9.50;99.90;;;;;;5110994;28;20035;-81
2021/12/15 09:06:18;;;;;;;60.45;27.25;;;9.50;99.90;;;;;;5113681;28;20047;-81
2021/12/15 09:08:45;;;;;;;66.40;27.77;;;9.60;99.90;;;;;;5083862;28;20028;-81
2021/12/15 09:11:15;;;;;;;64.53;27.00;;;9.60;99.90;;;;;;5092713;28;20028;-81
2021/12/15 09:13:41;;;;;;;;;;;9.60;99.90;;;;;;5094064;28;20106;-81
2021/12/15 09:16:10;;;;;;;56.80;25.48;;;9.50;99.90;;;;;;5109443;28;19904;-82
2021/12/15 09:18:36;;;;;;;;;;;9.50;99.90;;;;;;5095907;28;20456;-81
2021/12/15 09:21:04;;;;;;;62.05;26.88;;;9.60;99.90;;;;;;5095267;28;19915;-81
2021/12/15 09:23:30;;;;;;;61.97;26.75;;;9.60;99.90;;;;;;5071013;28;20058;-81
2021/12/15 09:25:56;;;;;;;54.40;25.75;;;9.60;99.90;;;;;;5094910;28;20051;-81
2021/12/15 09:28:24;;;;;;;62.30;27.90;;;9.60;99.90;;;;;;5069276;28;20484;-81
2021/12/15 09:30:50;;;;;;;66.10;28.77;;;9.60;99.90;;;;;;5095570;28;20092;-83
2021/12/15 09:33:26;;;;;;;58.35;26.05;;;9.70;99.90;;;;;;5073370;28;20491;-82
2021/12/15 09:35:52;;;;;;;62.55;26.67;;;9.70;99.90;;;;;;5093787;28;20028;-82
2021/12/15 09:38:20;;;;;;;61.78;26.55;;;9.70;99.90;;;;;;5093504;28;20028;-82
2021/12/15 09:40:47;;;;;;;62.50;26.83;;;9.70;99.90;;;;;;5075579;28;20020;-82
2021/12/15 09:43:13;;;;;;;68.13;28.42;;;9.70;99.90;;;;;;5083705;28;20032;-82
2021/12/15 09:45:52;;;;;;;64.40;28.63;;;9.70;99.90;;;;;;5095296;28;20467;-77
2021/12/15 10:04:27;;;;;;;55.10;25.70;;;9.80;99.90;;;;;;5105740;28;20070;-84
2021/12/15 10:07:18;;;;;;;56.53;26.40;;;9.90;99.90;;;;;;5071969;28;20416;-86
2021/12/15 10:17:24;;;;;;;50.25;25.33;;;9.90;99.90;;;;;;5091949;28;20081;-83
2021/12/15 10:18:24;;;;;;;59.47;26.20;;;9.90;99.90;;;;;;5091828;28;20120;-82
2021/12/15 10:20:50;;;;;;;62.22;27.52;;;9.90;99.90;;;;;;5087901;28;20024;-82
2021/12/15 10:23:23;;;;;;;56.85;27.25;;;9.90;99.90;;;;;;5072683;28;20033;-82
2021/12/15 10:25:54;;;;;;;53.92;26.73;;;9.90;99.90;;;;;;5086694;28;20025;-81
2021/12/15 10:28:32;;;;;;;51.20;25.20;;;9.90;99.90;;;;;;5071387;28;20064;-81
2021/12/15 10:31:08;;;;;;;57.75;25.83;;;10.00;99.90;;;;;;5090565;28;20610;-82
2021/12/15 10:33:42;;;;;;;49.60;24.48;;;9.90;99.90;;;;;;5084700;28;20111;-82
2021/12/15 10:36:16;;;;;;;50.42;25.45;;;9.90;99.90;;;;;;5088422;28;20019;-82
2021/12/15 10:38:48;;;;;;;56.03;26.98;;;9.90;99.90;;;;;;5074174;28;20024;-82
2021/12/15 10:41:16;;;;;;;52.78;27.33;;;9.90;99.90;;;;;;5082793;28;20434;-83
2021/12/15 10:44:00;;;;;;;51.55;25.88;;;9.90;99.90;;;;;;5078773;28;20035;-82
2021/12/15 10:46:34;;;;;;;50.65;26.17;;;10.00;99.90;;;;;;5087298;28;20024;-82
2021/12/15 10:49:07;;;;;;;55.00;25.98;;;10.00;99.90;;;;;;5090857;28;20111;-82
2021/12/15 10:51:39;;;;;;;51.42;26.63;;;10.00;99.90;;;;;;5094797;28;20077;-82
2021/12/15 10:54:17;;;;;;;52.20;27.00;;;10.00;99.90;;;;;;5096367;28;20491;-82
2021/12/15 10:57:05;;;;;;;56.55;25.65;;;10.00;99.90;;;;;;5093304;28;20028;-82
2021/12/15 10:59:34;;;;;;;61.60;28.65;;;10.10;99.90;;;;;;5075231;28;20481;-82
2021/12/15 11:02:12;;;;;;;57.45;27.02;;;10.00;99.90;;;;;;5091947;28;20036;-82
2021/12/15 11:04:49;;;;;;;63.67;29.08;;;10.10;99.90;;;;;;5079589;28;20013;-82
2021/12/15 11:07:32;;;;;;;59.10;27.50;;;10.00;99.90;;;;;;5097890;28;20031;-81
2021/12/15 11:10:25;;;;;;;64.43;28.00;;;10.10;99.90;;;;;;5103453;28;20766;-83
2021/12/15 11:12:54;;;;;;;58.88;28.02;;;10.10;99.90;;;;;;5107646;28;20031;-81
2021/12/15 11:15:32;;;;;;;60.17;27.10;;;10.10;99.90;;;;;;5086303;28;20035;-83
2021/12/15 11:18:04;;;;;;;63.28;29.58;;;10.20;99.90;;;;;;5106969;28;20024;-83
2021/12/15 11:20:42;;;;;;;60.97;28.30;;;10.10;99.90;;;;;;5115839;28;20104;-83
2021/12/15 11:23:16;;;;;;;62.55;28.63;;;10.10;99.90;;;;;;5102178;28;20077;-81
2021/12/15 11:26:00;;;;;;;60.33;28.95;;;10.20;99.90;;;;;;5090090;28;20384;-82
2021/12/15 11:28:39;;;;;;;66.80;29.80;;;10.20;99.90;;;;;;5092202;28;20178;-82
2021/12/15 11:31:06;;;;;;;;;;;10.20;99.90;;;;;;5104562;28;20034;-82
2021/12/15 11:33:42;;;;;;;64.25;28.48;;;10.30;99.90;;;;;;5103475;28;19923;-82
2021/12/15 11:36:43;;;;;;;71.45;30.33;;;10.20;99.90;;;;;;5083714;28;20066;-82
2021/12/15 11:39:16;;;;;;;79.03;32.38;;;10.20;99.90;;;;;;5081545;28;20042;-82
2021/12/15 11:41:44;;;;;;;73.80;29.85;;;10.30;99.90;;;;;;5083270;28;20031;-82
2021/12/15 11:44:17;;;;;;;65.38;30.30;;;10.30;99.90;;;;;;5081814;28;20027;-82
2021/12/15 11:46:47;;;;;;;63.67;28.98;;;10.30;99.90;;;;;;5089303;28;20042;-82
2021/12/15 11:49:25;;;;;;;71.15;31.13;;;10.30;99.90;;;;;;5099200;28;20089;-82
2021/12/15 11:52:10;;;;;;;66.37;30.87;;;10.30;99.90;;;;;;5088391;28;20434;-82
2021/12/15 11:54:39;;;;;;;78.15;33.28;;;10.30;99.90;;;;;;5109244;28;20503;-82
2021/12/15 11:57:22;;;;;;;70.82;30.92;;;10.30;99.90;;;;;;5104767;28;20036;-82
2021/12/15 11:59:54;;;;;;;64.47;30.70;;;10.30;99.90;;;;;;5092304;28;20555;-81
2021/12/15 12:02:34;;;;;;;68.35;31.27;;;10.30;99.90;;;;;;5093253;28;20549;-82
2021/12/15 12:05:13;;;;;;;73.90;32.72;;;10.30;99.90;;;;;;5089584;28;20062;-81
2021/12/15 12:07:55;;;;;;;71.97;32.17;;;10.30;99.90;;;;;;5112760;28;20028;-82
2021/12/15 12:10:48;;;;;;;71.15;31.83;;;10.40;99.90;;;;;;5092226;28;20032;-82
2021/12/15 12:13:22;;;;;;;70.88;32.75;;;10.40;99.90;;;;;;5074773;28;20050;-82
2021/12/15 12:15:50;;;;;;;73.03;33.65;;;10.40;99.90;;;;;;5086169;28;20024;-82
2021/12/15 12:18:20;;;;;;;72.00;31.43;;;10.40;99.90;;;;;;5078822;28;20053;-82
2021/12/15 12:20:52;;;;;;;69.97;31.92;;;10.40;99.90;;;;;;5097204;28;20270;-82
2021/12/15 12:23:21;;;;;;;75.88;33.45;;;10.40;99.90;;;;;;5096925;28;20023;-82
2021/12/15 12:25:49;;;;;;;74.57;32.95;;;10.50;99.90;;;;;;5102469;28;20024;-83
2021/12/15 12:28:19;;;;;;;67.78;32.03;;;10.50;99.90;;;;;;5114069;28;20809;-82
2021/12/15 12:30:45;;;;;;;;;;;10.50;99.90;;;;;;5094283;28;20080;-82
2021/12/15 12:33:13;;;;;;;72.63;33.50;;;10.50;99.90;;;;;;5092943;28;19916;-82
2021/12/15 12:35:49;;;;;;;69.28;32.90;;;10.50;99.90;;;;;;5090531;28;20024;-82
2021/12/15 12:38:25;;;;;;;70.20;33.83;;;10.60;99.90;;;;;;5111191;28;20019;-82
2021/12/15 12:41:13;;;;;;;66.93;32.63;;;10.60;99.90;;;;;;5110562;28;20016;-83
2021/12/15 12:43:46;;;;;;;64.82;31.15;;;10.70;99.90;;;;;;5104271;28;20019;-80
2021/12/15 12:46:30;;;;;;;63.78;32.13;;;10.70;99.90;;;;;;5096763;28;20081;-80
2021/12/15 13:03:03;;;;;;;57.08;29.52;;;10.80;99.90;;;;;;5093971;28;20024;-76
2021/12/15 13:05:40;;;;;;;63.15;31.98;;;10.80;99.90;;;;;;5093177;28;20054;-77
2021/12/15 13:08:14;;;;;;;57.03;29.17;;;10.80;99.90;;;;;;5093429;28;20464;-76
2021/12/15 13:10:54;;;;;;;60.25;30.67;;;10.80;99.90;;;;;;5075019;28;20024;-77
2021/12/15 13:13:33;;;;;;;59.63;30.33;;;10.80;99.90;;;;;;5074571;28;20024;-77
2021/12/15 13:16:05;;;;;;;;;;;10.80;99.90;;;;;;5075321;28;20119;-76
2021/12/15 13:18:50;;;;;;;57.78;30.25;;;10.70;99.90;;;;;;5094592;28;19965;-77
2021/12/15 13:21:21;;;;;;;56.53;29.00;;;10.70;99.90;;;;;;5075063;28;20107;-76
2021/12/15 13:29:24;;;;;;;59.08;30.73;;;10.70;99.90;;;;;;5113341;28;20411;-76
2021/12/15 13:31:56;;;;;;;55.78;30.92;;;10.70;99.90;;;;;;5095346;28;20421;-77
2021/12/15 13:34:41;;;;;;;60.33;31.00;;;10.70;99.90;;;;;;5112799;28;20051;-77
2021/12/15 13:37:07;;;;;;;55.13;30.23;;;10.70;99.90;;;;;;5113439;28;20050;-77
2021/12/15 13:39:48;;;;;;;53.33;28.80;;;10.70;99.90;;;;;;5094467;28;20468;-76
2021/12/15 13:42:41;;;;;;;52.80;28.35;;;10.70;99.90;;;;;;5113203;28;20018;-77
2021/12/15 13:45:27;;;;;;;50.42;28.23;;;10.70;99.90;;;;;;5113301;28;20095;-76
2021/12/15 13:47:53;;;;;;;51.20;30.05;;;10.70;99.90;;;;;;5095003;28;20015;-77
2021/12/15 13:50:22;;;;;;;51.97;28.98;;;10.70;99.90;;;;;;5078375;28;20040;-76
2021/12/15 13:53:00;;;;;;;48.40;28.58;;;10.70;99.90;;;;;;5113193;28;20032;-77
2021/12/15 13:55:27;;;;;;;48.50;27.27;;;10.70;99.90;;;;;;5092837;28;20072;-76
2021/12/15 13:57:55;;;;;;;47.92;28.85;;;10.70;99.90;;;;;;5092113;28;20107;-77
2021/12/15 14:00:24;;;;;;;52.75;28.75;;;10.70;99.90;;;;;;5095657;28;20144;-77
2021/12/15 14:03:07;;;;;;;53.60;29.27;;;10.70;99.90;;;;;;5111369;28;20027;-76
2021/12/15 14:05:41;;;;;;;53.60;27.80;;;10.70;99.90;;;;;;5112376;28;20122;-76
2021/12/15 14:08:11;;;;;;;47.22;27.50;;;10.70;99.90;;;;;;5093269;28;20063;-77
2021/12/15 14:10:36;;;;;;;52.85;28.17;;;10.70;99.90;;;;;;5111833;28;20024;-77
2021/12/15 14:13:06;;;;;;;49.70;28.73;;;10.70;99.90;;;;;;5112373;28;20423;-77
2021/12/15 14:15:37;;;;;;;56.45;28.13;;;10.70;99.90;;;;;;5099448;28;20540;-77